TAP301 MDPC-TXKF
Flight info
| Callsign | TAP301 |
|---|---|
| Flight time | N/A |
| Altitude | 29000 |
| Route | CHUMA3T CHUMA PUYYA M597 THANK L458 CHEDR/M077F350 L458 GECAL BDA |
| Aircraft | A21N/M-SDE3FGHIRWY/LB1 |
Departure
| Time | N/A |
|---|---|
| Airport | Punta Cana International Airport (MDPC) |
Arrival
| Time | 2026-04-25 15:27 |
|---|---|
| Airport | L.F. Wade International Airport (TXKF) |
| Time | Latitude | Longitude | Altitude | Speed | Heading |
|---|---|---|---|---|---|
| 2026-04-25 14:12 | 24.94826 | -65.78714 | 29005 ft | 459 kts | 4° |
| 2026-04-25 14:13 | 24.97986 | -65.78464 | 29005 ft | 459 kts | 4° |
| 2026-04-25 14:13 | 25.04334 | -65.77961 | 29005 ft | 457 kts | 4° |
| 2026-04-25 14:14 | 25.10645 | -65.77462 | 29005 ft | 455 kts | 4° |
| 2026-04-25 14:14 | 25.17005 | -65.76945 | 29004 ft | 469 kts | 2° |
| 2026-04-25 14:15 | 25.23507 | -65.76440 | 29005 ft | 470 kts | 2° |
| 2026-04-25 14:15 | 25.30027 | -65.75929 | 29005 ft | 470 kts | 2° |
| 2026-04-25 14:16 | 25.36499 | -65.75420 | 29005 ft | 470 kts | 2° |
| 2026-04-25 14:16 | 25.43006 | -65.74905 | 29005 ft | 470 kts | 2° |
| 2026-04-25 14:17 | 25.49505 | -65.74390 | 29004 ft | 469 kts | 2° |
| 2026-04-25 14:17 | 25.55993 | -65.73876 | 29000 ft | 469 kts | 2° |
| 2026-04-25 14:18 | 25.62433 | -65.73365 | 28992 ft | 468 kts | 2° |
| 2026-04-25 14:18 | 25.68933 | -65.72849 | 28987 ft | 469 kts | 2° |
| 2026-04-25 14:19 | 25.75396 | -65.72335 | 28984 ft | 469 kts | 2° |
| 2026-04-25 14:19 | 25.81861 | -65.71820 | 28982 ft | 469 kts | 2° |
| 2026-04-25 14:20 | 25.87270 | -65.71390 | 28982 ft | 469 kts | 2° |
| 2026-04-25 14:20 | 25.94848 | -65.70785 | 28981 ft | 469 kts | 2° |
| 2026-04-25 14:21 | 26.01310 | -65.70269 | 28982 ft | 469 kts | 2° |
| 2026-04-25 14:21 | 26.07806 | -65.69750 | 28982 ft | 469 kts | 2° |
| 2026-04-25 14:22 | 26.14268 | -65.69232 | 28982 ft | 469 kts | 2° |
| 2026-04-25 14:22 | 26.20738 | -65.68716 | 28981 ft | 469 kts | 2° |
| 2026-04-25 14:23 | 26.27236 | -65.68195 | 28982 ft | 469 kts | 2° |
| 2026-04-25 14:23 | 26.33687 | -65.67677 | 28982 ft | 469 kts | 2° |
| 2026-04-25 14:24 | 26.40207 | -65.67152 | 28982 ft | 469 kts | 2° |
| 2026-04-25 14:24 | 26.46644 | -65.66634 | 28982 ft | 469 kts | 2° |
| 2026-04-25 14:25 | 26.53154 | -65.66110 | 28982 ft | 469 kts | 2° |
| 2026-04-25 14:25 | 26.59633 | -65.65587 | 28982 ft | 469 kts | 2° |
| 2026-04-25 14:26 | 26.66110 | -65.65063 | 28982 ft | 469 kts | 2° |
| 2026-04-25 14:26 | 26.72549 | -65.64543 | 28982 ft | 469 kts | 2° |
| 2026-04-25 14:27 | 26.79038 | -65.64017 | 28982 ft | 469 kts | 2° |
| 2026-04-25 14:27 | 26.85529 | -65.63492 | 28982 ft | 469 kts | 2° |
| 2026-04-25 14:28 | 26.92013 | -65.62965 | 28982 ft | 469 kts | 2° |
| 2026-04-25 14:28 | 26.98498 | -65.62437 | 28981 ft | 471 kts | 2° |
| 2026-04-25 14:29 | 27.04993 | -65.61910 | 28981 ft | 472 kts | 1° |
| 2026-04-25 14:29 | 27.11545 | -65.61375 | 28981 ft | 473 kts | 1° |
| 2026-04-25 14:30 | 27.18068 | -65.60846 | 28981 ft | 473 kts | 1° |
| 2026-04-25 14:30 | 27.27879 | -65.60046 | 28982 ft | 473 kts | 1° |
| 2026-04-25 14:31 | 27.34414 | -65.59510 | 28981 ft | 472 kts | 1° |
| 2026-04-25 14:31 | 27.40918 | -65.58978 | 28981 ft | 473 kts | 1° |
| 2026-04-25 14:32 | 27.47479 | -65.58440 | 28981 ft | 472 kts | 1° |
| 2026-04-25 14:32 | 27.54000 | -65.57905 | 28983 ft | 473 kts | 1° |
| 2026-04-25 14:33 | 27.60543 | -65.57368 | 28983 ft | 472 kts | 1° |
| 2026-04-25 14:33 | 27.67046 | -65.56832 | 28981 ft | 472 kts | 1° |
| 2026-04-25 14:34 | 27.73576 | -65.56294 | 28982 ft | 473 kts | 1° |
| 2026-04-25 14:34 | 27.80101 | -65.55756 | 28981 ft | 473 kts | 1° |
| 2026-04-25 14:35 | 27.86640 | -65.55217 | 28983 ft | 473 kts | 1° |
| 2026-04-25 14:35 | 27.93143 | -65.54682 | 28981 ft | 473 kts | 1° |
| 2026-04-25 14:36 | 27.99686 | -65.54143 | 28982 ft | 472 kts | 1° |
| 2026-04-25 14:36 | 28.06244 | -65.53599 | 28982 ft | 472 kts | 1° |
| 2026-04-25 14:37 | 28.12735 | -65.53062 | 28981 ft | 473 kts | 1° |
| 2026-04-25 14:37 | 28.19285 | -65.52518 | 28982 ft | 473 kts | 1° |
| 2026-04-25 14:38 | 28.25810 | -65.51976 | 28982 ft | 473 kts | 1° |
| 2026-04-25 14:38 | 28.32363 | -65.51430 | 28981 ft | 473 kts | 1° |
| 2026-04-25 14:39 | 28.38867 | -65.50887 | 28982 ft | 472 kts | 1° |
| 2026-04-25 14:39 | 28.45413 | -65.50338 | 28982 ft | 473 kts | 1° |
| 2026-04-25 14:40 | 28.51938 | -65.49792 | 28981 ft | 472 kts | 1° |
| 2026-04-25 14:40 | 28.58479 | -65.49245 | 28981 ft | 473 kts | 1° |
| 2026-04-25 14:41 | 28.65001 | -65.48698 | 28981 ft | 473 kts | 1° |
| 2026-04-25 14:41 | 28.71551 | -65.48149 | 28981 ft | 472 kts | 1° |
| 2026-04-25 14:42 | 28.77008 | -65.47691 | 28980 ft | 472 kts | 1° |
| 2026-04-25 14:42 | 28.84582 | -65.47055 | 28982 ft | 472 kts | 1° |
| 2026-04-25 14:43 | 28.91081 | -65.46508 | 28981 ft | 472 kts | 1° |
| 2026-04-25 14:43 | 28.97648 | -65.45954 | 28981 ft | 473 kts | 1° |
| 2026-04-25 14:44 | 29.04179 | -65.45400 | 28982 ft | 472 kts | 1° |
| 2026-04-25 14:44 | 29.10648 | -65.44852 | 28982 ft | 470 kts | 1° |
| 2026-04-25 14:45 | 29.17196 | -65.44301 | 28982 ft | 470 kts | 1° |
| 2026-04-25 14:45 | 29.23687 | -65.43755 | 28982 ft | 470 kts | 1° |
| 2026-04-25 14:46 | 29.30163 | -65.43207 | 28982 ft | 470 kts | 1° |
| 2026-04-25 14:46 | 29.36673 | -65.42654 | 28982 ft | 470 kts | 1° |
| 2026-04-25 14:47 | 29.42043 | -65.42071 | 28982 ft | 471 kts | 4° |
| 2026-04-25 14:47 | 29.49560 | -65.40479 | 28982 ft | 473 kts | 8° |
| 2026-04-25 14:48 | 29.56014 | -65.38905 | 28982 ft | 473 kts | 8° |
| 2026-04-25 14:48 | 29.62386 | -65.37349 | 28982 ft | 473 kts | 8° |
| 2026-04-25 14:49 | 29.68793 | -65.35790 | 28982 ft | 473 kts | 8° |
| 2026-04-25 14:49 | 29.75208 | -65.34222 | 28981 ft | 473 kts | 9° |
| 2026-04-25 14:50 | 29.81631 | -65.32631 | 28982 ft | 474 kts | 9° |
| 2026-04-25 14:50 | 29.88073 | -65.31048 | 28981 ft | 473 kts | 9° |
| 2026-04-25 14:51 | 29.94496 | -65.29477 | 28982 ft | 473 kts | 9° |
| 2026-04-25 14:51 | 30.00888 | -65.27916 | 28982 ft | 474 kts | 9° |
| 2026-04-25 14:52 | 30.07298 | -65.26349 | 28982 ft | 474 kts | 9° |
| 2026-04-25 14:52 | 30.12688 | -65.25032 | 28982 ft | 474 kts | 9° |
| 2026-04-25 14:53 | 30.20178 | -65.23202 | 28982 ft | 473 kts | 9° |
| 2026-04-25 14:53 | 30.26570 | -65.21637 | 28982 ft | 473 kts | 9° |
| 2026-04-25 14:54 | 30.33009 | -65.20055 | 28994 ft | 473 kts | 9° |
| 2026-04-25 14:54 | 30.39391 | -65.18487 | 29002 ft | 473 kts | 9° |
| 2026-04-25 14:55 | 30.45840 | -65.16898 | 29006 ft | 473 kts | 9° |
| 2026-04-25 14:55 | 30.52268 | -65.15312 | 29008 ft | 473 kts | 9° |
| 2026-04-25 14:56 | 30.58687 | -65.13728 | 29008 ft | 473 kts | 9° |
| 2026-04-25 14:56 | 30.65123 | -65.12135 | 29009 ft | 473 kts | 9° |
| 2026-04-25 14:57 | 30.71512 | -65.10553 | 29008 ft | 473 kts | 9° |
| 2026-04-25 14:57 | 30.77933 | -65.08961 | 29008 ft | 473 kts | 9° |
| 2026-04-25 14:58 | 30.79309 | -65.08620 | 29008 ft | 473 kts | 9° |
| 2026-04-25 15:02 | 30.79663 | -65.08532 | 29008 ft | 473 kts | 9° |
| 2026-04-25 15:02 | 30.86046 | -65.06945 | 28800 ft | 468 kts | 9° |
| 2026-04-25 15:03 | 30.89184 | -65.06165 | 28064 ft | 469 kts | 9° |
| 2026-04-25 15:03 | 30.92392 | -65.05370 | 27012 ft | 476 kts | 9° |
| 2026-04-25 15:03 | 30.95608 | -65.04571 | 26438 ft | 471 kts | 9° |
| 2026-04-25 15:03 | 30.98801 | -65.03774 | 25961 ft | 464 kts | 9° |
| 2026-04-25 15:04 | 31.01908 | -65.02998 | 25511 ft | 458 kts | 9° |
| 2026-04-25 15:04 | 31.04982 | -65.02230 | 25075 ft | 451 kts | 9° |
| 2026-04-25 15:04 | 31.08000 | -65.01476 | 24656 ft | 445 kts | 9° |
| 2026-04-25 15:04 | 31.10873 | -65.00760 | 24260 ft | 439 kts | 9° |
| 2026-04-25 15:05 | 31.13848 | -65.00018 | 23853 ft | 433 kts | 9° |
| 2026-04-25 15:05 | 31.16784 | -64.99287 | 23454 ft | 427 kts | 9° |
| 2026-04-25 15:05 | 31.19646 | -64.98573 | 23066 ft | 421 kts | 10° |
| 2026-04-25 15:06 | 31.25275 | -64.97166 | 22310 ft | 410 kts | 10° |
| 2026-04-25 15:06 | 31.28062 | -64.96468 | 21938 ft | 405 kts | 10° |
| 2026-04-25 15:06 | 31.30748 | -64.95795 | 21582 ft | 399 kts | 10° |
| 2026-04-25 15:06 | 31.33439 | -64.95120 | 21225 ft | 394 kts | 10° |
| 2026-04-25 15:07 | 31.36084 | -64.94456 | 20876 ft | 388 kts | 10° |
| 2026-04-25 15:07 | 31.38717 | -64.93795 | 20518 ft | 384 kts | 10° |
| 2026-04-25 15:07 | 31.41286 | -64.93150 | 20110 ft | 381 kts | 10° |
| 2026-04-25 15:07 | 31.43868 | -64.92501 | 19678 ft | 378 kts | 11° |
| 2026-04-25 15:08 | 31.46432 | -64.91856 | 19250 ft | 376 kts | 11° |
| 2026-04-25 15:08 | 31.48933 | -64.91227 | 18832 ft | 373 kts | 11° |
| 2026-04-25 15:08 | 31.51479 | -64.90585 | 18407 ft | 371 kts | 11° |
| 2026-04-25 15:08 | 31.53945 | -64.89964 | 17993 ft | 368 kts | 11° |
| 2026-04-25 15:09 | 31.56443 | -64.89333 | 17578 ft | 366 kts | 11° |
| 2026-04-25 15:09 | 31.58901 | -64.88713 | 17166 ft | 363 kts | 11° |
| 2026-04-25 15:09 | 31.63785 | -64.87479 | 16347 ft | 358 kts | 11° |
| 2026-04-25 15:10 | 31.66214 | -64.86865 | 15936 ft | 356 kts | 12° |
| 2026-04-25 15:10 | 31.68623 | -64.86255 | 15529 ft | 353 kts | 12° |
| 2026-04-25 15:10 | 31.73366 | -64.85054 | 14731 ft | 348 kts | 12° |
| 2026-04-25 15:11 | 31.75701 | -64.84462 | 14335 ft | 345 kts | 12° |
| 2026-04-25 15:11 | 31.78039 | -64.83869 | 13935 ft | 343 kts | 12° |
| 2026-04-25 15:11 | 31.80331 | -64.83288 | 13543 ft | 340 kts | 12° |
| 2026-04-25 15:12 | 31.84909 | -64.82125 | 12761 ft | 335 kts | 12° |
| 2026-04-25 15:12 | 31.87181 | -64.81548 | 12369 ft | 332 kts | 12° |
| 2026-04-25 15:12 | 31.89404 | -64.80982 | 11984 ft | 330 kts | 12° |
| 2026-04-25 15:12 | 31.90900 | -64.80602 | 11721 ft | 328 kts | 12° |
| 2026-04-25 15:13 | 31.93859 | -64.79850 | 11187 ft | 325 kts | 12° |
| 2026-04-25 15:13 | 31.98224 | -64.78739 | 10424 ft | 320 kts | 13° |
| 2026-04-25 15:13 | 32.00362 | -64.78194 | 10126 ft | 315 kts | 13° |
| 2026-04-25 15:14 | 32.02493 | -64.77651 | 9817 ft | 310 kts | 13° |
| 2026-04-25 15:14 | 32.04573 | -64.77121 | 9515 ft | 306 kts | 13° |
| 2026-04-25 15:14 | 32.06625 | -64.76597 | 9216 ft | 301 kts | 13° |
| 2026-04-25 15:14 | 32.08660 | -64.76077 | 8920 ft | 297 kts | 13° |
| 2026-04-25 15:15 | 32.10652 | -64.75568 | 8630 ft | 292 kts | 13° |
| 2026-04-25 15:15 | 32.12608 | -64.75072 | 8345 ft | 288 kts | 13° |
| 2026-04-25 15:15 | 32.14537 | -64.74582 | 8065 ft | 284 kts | 13° |
| 2026-04-25 15:15 | 32.16459 | -64.74092 | 7783 ft | 279 kts | 13° |
| 2026-04-25 15:16 | 32.18336 | -64.73614 | 7463 ft | 277 kts | 13° |
| 2026-04-25 15:16 | 32.20227 | -64.73129 | 7129 ft | 275 kts | 13° |
| 2026-04-25 15:16 | 32.23911 | -64.72186 | 6477 ft | 271 kts | 12° |
| 2026-04-25 15:17 | 32.27564 | -64.71248 | 5828 ft | 267 kts | 12° |
| 2026-04-25 15:17 | 32.29372 | -64.70784 | 5493 ft | 266 kts | 11° |
| 2026-04-25 15:17 | 32.31166 | -64.70325 | 5147 ft | 265 kts | 11° |
| 2026-04-25 15:18 | 32.32942 | -64.69875 | 4818 ft | 264 kts | 12° |
| 2026-04-25 15:18 | 32.35689 | -64.67303 | 4077 ft | 266 kts | 68° |
| 2026-04-25 15:18 | 32.35890 | -64.65125 | 3714 ft | 269 kts | 96° |
| 2026-04-25 15:19 | 32.35539 | -64.62986 | 3444 ft | 266 kts | 100° |
| 2026-04-25 15:19 | 32.35274 | -64.61565 | 3279 ft | 263 kts | 101° |
| 2026-04-25 15:19 | 32.34764 | -64.58775 | 2969 ft | 256 kts | 100° |
| 2026-04-25 15:19 | 32.34409 | -64.56745 | 2812 ft | 248 kts | 99° |
| 2026-04-25 15:20 | 32.34079 | -64.54801 | 2655 ft | 241 kts | 99° |
| 2026-04-25 15:20 | 32.33756 | -64.52874 | 2495 ft | 236 kts | 99° |
| 2026-04-25 15:20 | 32.33439 | -64.50960 | 2306 ft | 238 kts | 99° |
| 2026-04-25 15:20 | 32.33119 | -64.49025 | 1859 ft | 245 kts | 99° |
| 2026-04-25 15:21 | 32.32822 | -64.47081 | 1552 ft | 233 kts | 91° |
| 2026-04-25 15:21 | 32.33168 | -64.45320 | 1447 ft | 216 kts | 50° |
| 2026-04-25 15:21 | 32.34328 | -64.44418 | 1452 ft | 191 kts | 8° |
| 2026-04-25 15:21 | 32.35480 | -64.44784 | 1380 ft | 168 kts | 316° |
| 2026-04-25 15:22 | 32.35881 | -64.45978 | 1367 ft | 158 kts | 272° |
| 2026-04-25 15:22 | 32.35654 | -64.47279 | 1387 ft | 164 kts | 248° |
| 2026-04-25 15:22 | 32.35029 | -64.48419 | 1403 ft | 165 kts | 234° |
| 2026-04-25 15:22 | 32.34330 | -64.49496 | 1401 ft | 165 kts | 234° |
| 2026-04-25 15:23 | 32.33666 | -64.50587 | 1396 ft | 161 kts | 241° |
| 2026-04-25 15:23 | 32.33424 | -64.51815 | 1341 ft | 152 kts | 278° |
| 2026-04-25 15:23 | 32.33628 | -64.53026 | 1366 ft | 151 kts | 287° |
| 2026-04-25 15:23 | 32.33911 | -64.54243 | 1367 ft | 152 kts | 288° |
| 2026-04-25 15:24 | 32.34180 | -64.55439 | 1369 ft | 149 kts | 287° |
| 2026-04-25 15:24 | 32.34426 | -64.56620 | 1367 ft | 149 kts | 286° |
| 2026-04-25 15:24 | 32.34660 | -64.57806 | 1363 ft | 150 kts | 285° |
| 2026-04-25 15:24 | 32.34815 | -64.58623 | 1315 ft | 151 kts | 285° |
| 2026-04-25 15:25 | 32.35100 | -64.60243 | 1063 ft | 150 kts | 284° |
| 2026-04-25 15:25 | 32.35305 | -64.61459 | 862 ft | 152 kts | 284° |
| 2026-04-25 15:25 | 32.35513 | -64.62679 | 670 ft | 149 kts | 284° |
| 2026-04-25 15:25 | 32.35711 | -64.63877 | 403 ft | 148 kts | 284° |
| 2026-04-25 15:26 | 32.35927 | -64.65057 | 248 ft | 146 kts | 283° |
| 2026-04-25 15:26 | 32.36118 | -64.66245 | 72 ft | 147 kts | 285° |
| 2026-04-25 15:26 | 32.36313 | -64.67377 | 21 ft | 128 kts | 283° |
| 2026-04-25 15:26 | 32.36467 | -64.68214 | 21 ft | 78 kts | 280° |
| 2026-04-25 15:27 | 32.36526 | -64.68626 | 21 ft | 22 kts | 246° |
| 2026-04-25 15:27 | 32.36486 | -64.68637 | 21 ft | 2 kts | 167° |
| 2026-04-25 15:27 | 32.36547 | -64.68708 | 21 ft | 11 kts | 280° |
| 2026-04-25 15:28 | 32.36575 | -64.68873 | 21 ft | 27 kts | 282° |
| 2026-04-25 15:28 | 32.36620 | -64.69127 | 21 ft | 33 kts | 282° |
| 2026-04-25 15:28 | 32.36652 | -64.69351 | 21 ft | 26 kts | 248° |
| 2026-04-25 15:28 | 32.36512 | -64.69469 | 21 ft | 25 kts | 243° |
| 2026-04-25 15:29 | 32.36438 | -64.69678 | 21 ft | 29 kts | 247° |
| 2026-04-25 15:29 | 32.36355 | -64.69913 | 21 ft | 31 kts | 248° |
| 2026-04-25 15:29 | 32.36281 | -64.70121 | 21 ft | 13 kts | 247° |
| 2026-04-25 15:29 | 32.36229 | -64.70200 | 21 ft | 13 kts | 234° |
| 2026-04-25 15:30 | 32.36208 | -64.70255 | 21 ft | 4 kts | 247° |
| 2026-04-25 15:30 | 32.36206 | -64.70260 | 21 ft | 0 kts | 247° |